Terminal Aerodrome Forecast
Issued by NWS

Home | Current Version | Previous Version | Graphics & Text | Print | Product List | Glossary On
Versions: 1 2 3 4 5 6 7 8 9 10 11 12 13 14 15 16 17 18 19 20 21
000
FTUS43 KBIS 040012 AAA
TAFMOT
TAF AMD
KMOT 040012Z 0400/0424 17010KT 3SM -SN BR SCT015 OVC025
      TEMPO 0400/0402 1SM -SN BR SCT008 OVC015
     FM040200 21009KT 5SM -SN BR OVC012
     FM040700 26012KT P6SM BKN015 OVC035
     FM041500 26010KT P6SM SCT015 BKN050
     FM042100 22008KT P6SM BKN150=

USA.gov is the U.S. government's official web portal to all federal, state and local government web resources and services.